^^
Meteo Knjazevac Station Historical Data
Daily Summary for June 24, 2022 Units:  Both    English   Metric
Daily Weekly Monthly Yearly Custom
  High: Low: Average:
Temperature: 64.2 °F /  17.9 °C 57.6 °F /  14.2 °C 60.6 °F /  15.9 °C
Dew Point: 62.4 °F /  16.9 °C 57.3 °F /  14.1 °C 59.8 °F /  15.4 °C
Humidity: 99% 94% 97%
Wind Speed: 3mph /  4.8km/h - 0.6mph /  1km/h
Wind Gust: 5mph /  8km/h - -
Wind- - SSE
Pressure: 30.04 in /  1017.2 hPa 30.03 in /  1016.8 hPa -
Precipitation: 0.00 in /  0 mm    
Historical Graphs
 
 
Tabular Data for June 24, 2022
Time Temperature Dew Point Pressure Wind Wind Speed Wind Gust Humidity Rainfall Rate (Hourly) solar Conditions
00:00 64.2 °F /  17.9 °C 62.4 °F /  16.9 °C 30.04in /  1017.2hPa NE 2mph /  3.2km/h 3mph /  4.8km/h 94% 0.00in /  0mm 0 W/m2
00:10 64 °F /  17.8 °C 62.3 °F /  16.8 °C 30.04in /  1017.2hPa NE 1mph /  1.6km/h 3mph /  4.8km/h 94% 0.00in /  0mm 0 W/m2
00:20 63.9 °F /  17.7 °C 62.1 °F /  16.7 °C 30.04in /  1017.2hPa Calm   2mph /  3.2km/h 94% 0.00in /  0mm 0 W/m2
00:30 63.9 °F /  17.7 °C 62.4 °F /  16.9 °C 30.04in /  1017.2hPa NE 1mph /  1.6km/h 3mph /  4.8km/h 95% 0.00in /  0mm 0 W/m2
00:40 63.5 °F /  17.5 °C 61.7 °F /  16.5 °C 30.04in /  1017.2hPa South 1mph /  1.6km/h 3mph /  4.8km/h 94% 0.00in /  0mm 0 W/m2
00:50 63.3 °F /  17.4 °C 61.6 °F /  16.4 °C 30.04in /  1017.2hPa Calm   5mph /  8km/h 94% 0.00in /  0mm 0 W/m2
01:00 63.1 °F /  17.3 °C 61.7 °F /  16.5 °C 30.03in /  1016.8hPa Calm   2mph /  3.2km/h 95% 0.00in /  0mm 0 W/m2
01:10 63 °F /  17.2 °C 61.5 °F /  16.4 °C 30.03in /  1016.8hPa ENE 3mph /  4.8km/h 5mph /  8km/h 95% 0.00in /  0mm 0 W/m2
01:30 62.8 °F /  17.1 °C 61.3 °F /  16.3 °C 30.03in /  1016.8hPa North 1mph /  1.6km/h 5mph /  8km/h 95% 0.00in /  0mm 0 W/m2
01:40 62.4 °F /  16.9 °C 61 °F /  16.1 °C 30.03in /  1016.8hPa NW 1mph /  1.6km/h 2mph /  3.2km/h 95% 0.00in /  0mm 0 W/m2
01:50 61.9 °F /  16.6 °C 60.4 °F /  15.8 °C 30.04in /  1017.2hPa SW 2mph /  3.2km/h 3mph /  4.8km/h 95% 0.00in /  0mm 0 W/m2
02:10 61 °F /  16.1 °C 59.8 °F /  15.4 °C 30.04in /  1017.2hPa WNW 1mph /  1.6km/h 3mph /  4.8km/h 96% 0.00in /  0mm 0 W/m2
02:20 60.8 °F /  16 °C 60.2 °F /  15.7 °C 30.04in /  1017.2hPa Calm   2mph /  3.2km/h 98% 0.00in /  0mm 0 W/m2
02:30 60.8 °F /  16 °C 60.2 °F /  15.7 °C 30.04in /  1017.2hPa North 1mph /  1.6km/h 2mph /  3.2km/h 98% 0.00in /  0mm 0 W/m2
02:40 60.6 °F /  15.9 °C 60.1 °F /  15.6 °C 30.04in /  1017.2hPa Calm   2mph /  3.2km/h 98% 0.00in /  0mm 0 W/m2
02:50 60.4 °F /  15.8 °C 59.9 °F /  15.5 °C 30.04in /  1017.2hPa North 1mph /  1.6km/h 2mph /  3.2km/h 98% 0.00in /  0mm 0 W/m2
03:00 60.4 °F /  15.8 °C 60.2 °F /  15.7 °C 30.04in /  1017.2hPa NE 1mph /  1.6km/h 5mph /  8km/h 99% 0.00in /  0mm 0 W/m2
03:10 60.3 °F /  15.7 °C 59.7 °F /  15.4 °C 30.04in /  1017.2hPa SE 1mph /  1.6km/h 5mph /  8km/h 98% 0.00in /  0mm 0 W/m2
03:20 59.9 °F /  15.5 °C 59.3 °F /  15.2 °C 30.03in /  1016.8hPa Calm   2mph /  3.2km/h 98% 0.00in /  0mm 0 W/m2
03:30 59.9 °F /  15.5 °C 59.6 °F /  15.3 °C 30.03in /  1016.8hPa Calm   3mph /  4.8km/h 99% 0.00in /  0mm 0 W/m2
03:40 59.9 °F /  15.5 °C 59.6 °F /  15.3 °C 30.03in /  1016.8hPa Calm   2mph /  3.2km/h 99% 0.00in /  0mm 0 W/m2
03:50 59.7 °F /  15.4 °C 59.4 °F /  15.2 °C 30.03in /  1016.8hPa Calm   2mph /  3.2km/h 99% 0.00in /  0mm 0 W/m2
04:00 59.5 °F /  15.3 °C 59 °F /  15 °C 30.03in /  1016.8hPa Calm   2mph /  3.2km/h 98% 0.00in /  0mm 0 W/m2
04:10 59.3 °F /  15.2 °C 58.8 °F /  14.9 °C 30.03in /  1016.8hPa NW 1mph /  1.6km/h 2mph /  3.2km/h 98% 0.00in /  0mm 0 W/m2
04:30 58.8 °F /  14.9 °C 58.3 °F /  14.6 °C 30.03in /  1016.8hPa Calm   1mph /  1.6km/h 98% 0.00in /  0mm 0 W/m2
04:40 58.6 °F /  14.8 °C 58.1 °F /  14.5 °C 30.03in /  1016.8hPa Calm   2mph /  3.2km/h 98% 0.00in /  0mm 0 W/m2
04:50 58.3 °F /  14.6 °C 57.7 °F /  14.3 °C 30.03in /  1016.8hPa Calm   2mph /  3.2km/h 98% 0.00in /  0mm 3 W/m2
05:10 58.1 °F /  14.5 °C 57.5 °F /  14.2 °C 30.03in /  1016.8hPa Calm   2mph /  3.2km/h 98% 0.00in /  0mm 13 W/m2
05:20 57.9 °F /  14.4 °C 57.6 °F /  14.2 °C 30.04in /  1017.2hPa Calm   2mph /  3.2km/h 99% 0.00in /  0mm 21 W/m2
05:30 57.7 °F /  14.3 °C 57.5 °F /  14.2 °C 30.04in /  1017.2hPa Calm   2mph /  3.2km/h 99% 0.00in /  0mm 29 W/m2
05:40 57.7 °F /  14.3 °C 57.5 °F /  14.2 °C 30.04in /  1017.2hPa Calm   1mph /  1.6km/h 99% 0.00in /  0mm 37 W/m2
05:50 57.6 °F /  14.2 °C 57.3 °F /  14.1 °C 30.04in /  1017.2hPa NW 1mph /  1.6km/h 2mph /  3.2km/h 99% 0.00in /  0mm 66 W/m2
06:00 57.7 °F /  14.3 °C 57.5 °F /  14.2 °C 30.04in /  1017.2hPa West 2mph /  3.2km/h 3mph /  4.8km/h 99% 0.00in /  0mm 53 W/m2
Knjazevac, Serbia
Compliments of Weather Underground - 2 mb